Time;durP1;ratioP1;P1;durP2;ratioP2;P2;SDS_P1;SDS_P2;PMS_P1;PMS_P2;Temp;Humidity;BMP_temperature;BMP_pressure;BME280_temperature;BME280_humidity;BME280_pressure;Samples;Min_cycle;Max_cycle;Signal;HPM_P1;HPM_P2
2022/06/02 00:00:12;;;;;;;15.10;12.00;;;10.10;99.90;;;;;;5073420;28;20392;-77
2022/06/02 00:03:04;;;;;;;16.13;11.52;;;10.10;99.90;;;;;;5075350;28;20583;-77
2022/06/02 00:06:08;;;;;;;16.92;12.18;;;10.10;99.90;;;;;;5073535;28;20055;-77
2022/06/02 00:09:02;;;;;;;15.23;11.52;;;10.00;99.90;;;;;;5073628;28;20048;-77
2022/06/02 00:12:06;;;;;;;13.23;10.40;;;10.00;99.90;;;;;;5074315;28;20043;-77
2022/06/02 00:15:00;;;;;;;15.75;11.50;;;10.00;99.90;;;;;;5072653;28;20036;-77
2022/06/02 00:17:51;;;;;;;16.52;10.60;;;9.90;99.90;;;;;;5073446;28;20108;-78
2022/06/02 00:20:50;;;;;;;17.55;12.00;;;9.90;99.90;;;;;;5072696;28;20025;-78
2022/06/02 00:23:40;;;;;;;14.00;10.90;;;9.90;99.90;;;;;;5073563;28;20095;-77
2022/06/02 00:26:38;;;;;;;17.77;11.20;;;9.90;99.90;;;;;;5073132;28;20021;-78
2022/06/02 00:29:30;;;;;;;12.07;10.02;;;9.90;99.90;;;;;;5072938;28;20028;-78
2022/06/02 00:32:11;;;;;;;16.50;10.85;;;9.90;99.90;;;;;;5072844;28;20067;-78
2022/06/02 00:34:59;;;;;;;16.85;9.75;;;9.90;99.90;;;;;;5073047;28;20020;-79
2022/06/02 00:37:36;;;;;;;12.95;10.88;;;9.90;99.90;;;;;;5074151;28;20115;-78
2022/06/02 00:40:04;;;;;;;13.73;10.40;;;9.90;99.90;;;;;;5072225;28;20066;-78
2022/06/02 00:42:54;;;;;;;14.48;11.07;;;9.90;99.90;;;;;;5073142;28;20028;-78
2022/06/02 00:45:21;;;;;;;14.15;10.20;;;9.90;99.90;;;;;;5072766;28;20032;-78
2022/06/02 00:47:55;;;;;;;16.60;11.80;;;9.80;99.90;;;;;;5072808;28;20508;-78
2022/06/02 00:50:52;;;;;;;14.18;10.43;;;9.90;99.90;;;;;;5072198;28;20032;-75
2022/06/02 00:53:42;;;;;;;16.55;11.65;;;9.80;99.90;;;;;;5073840;28;20095;-75
2022/06/02 00:59:49;;;;;;;13.20;10.63;;;9.80;99.90;;;;;;5073392;28;20135;-74
2022/06/02 01:02:16;;;;;;;15.32;10.93;;;9.80;99.90;;;;;;5072800;28;20031;-75
2022/06/02 01:04:43;;;;;;;13.38;10.68;;;9.70;99.90;;;;;;5072925;28;20025;-75
2022/06/02 01:07:39;;;;;;;13.43;10.68;;;9.80;99.90;;;;;;5073114;28;20028;-75
2022/06/02 01:10:32;;;;;;;13.35;9.70;;;9.80;99.90;;;;;;5071204;28;20028;-75
2022/06/02 01:13:04;;;;;;;15.38;11.32;;;9.70;99.90;;;;;;5072940;28;20050;-76
2022/06/02 01:15:46;;;;;;;12.80;10.15;;;9.80;99.90;;;;;;5071810;28;20386;-76
2022/06/02 01:18:47;;;;;;;13.45;9.90;;;9.80;99.90;;;;;;5073366;28;20032;-76
2022/06/02 01:21:27;;;;;;;;;;;9.80;99.90;;;;;;5072057;28;20028;-76
2022/06/02 01:24:21;;;;;;;14.20;10.52;;;9.80;99.90;;;;;;5071568;28;19908;-75
2022/06/02 01:27:18;;;;;;;15.80;11.73;;;9.80;99.90;;;;;;5072553;28;20396;-76
2022/06/02 01:30:29;;;;;;;12.70;10.63;;;9.80;99.90;;;;;;5071495;28;20056;-76
2022/06/02 01:33:32;;;;;;;12.68;10.50;;;9.80;99.90;;;;;;5071835;28;20020;-76
2022/06/02 01:36:35;;;;;;;14.75;11.35;;;9.70;99.90;;;;;;5069444;28;20112;-76
2022/06/02 01:39:20;;;;;;;18.60;11.93;;;9.60;99.90;;;;;;5071328;28;20115;-76
2022/06/02 01:42:04;;;;;;;14.82;11.85;;;9.50;99.90;;;;;;5072342;28;20050;-76
2022/06/02 01:44:37;;;;;;;13.85;10.90;;;9.60;99.90;;;;;;5069945;28;20051;-74
2022/06/02 01:47:20;;;;;;;22.67;12.70;;;9.50;99.90;;;;;;5069985;28;20028;-74
2022/06/02 01:50:05;;;;;;;17.27;12.18;;;9.60;99.90;;;;;;5069029;28;20044;-74
2022/06/02 01:53:03;;;;;;;15.50;11.77;;;9.60;99.90;;;;;;5072323;28;20489;-75
2022/06/02 01:55:55;;;;;;;16.92;12.32;;;9.50;99.90;;;;;;5072397;28;20474;-74
2022/06/02 01:58:37;;;;;;;16.73;13.82;;;9.40;99.90;;;;;;5072001;28;20024;-74
2022/06/02 02:01:47;;;;;;;18.25;13.32;;;9.40;99.90;;;;;;5071720;28;20436;-74
2022/06/02 02:04:54;;;;;;;18.42;13.98;;;9.40;99.90;;;;;;5072768;28;20066;-74
2022/06/02 02:07:46;;;;;;;17.60;14.07;;;9.30;99.90;;;;;;5053510;28;20116;-74
2022/06/02 02:10:37;;;;;;;21.33;15.18;;;9.40;99.90;;;;;;5072299;28;20028;-74
2022/06/02 02:13:30;;;;;;;18.88;13.95;;;9.30;99.90;;;;;;5072454;28;20071;-75
2022/06/02 02:16:30;;;;;;;19.98;14.98;;;9.40;99.90;;;;;;5072389;28;20060;-75
2022/06/02 02:19:22;;;;;;;17.67;13.85;;;9.40;99.90;;;;;;5071202;28;20086;-76
2022/06/02 02:22:09;;;;;;;18.85;14.55;;;9.40;99.90;;;;;;5071073;28;20127;-77
2022/06/02 02:25:12;;;;;;;20.25;15.18;;;9.40;99.90;;;;;;5071689;28;20049;-77
2022/06/02 02:28:04;;;;;;;18.05;15.25;;;9.50;99.90;;;;;;5073180;28;20021;-77
2022/06/02 02:30:47;;;;;;;16.15;13.55;;;9.50;99.90;;;;;;5072206;28;20035;-77
2022/06/02 02:33:40;;;;;;;19.40;15.18;;;9.50;99.90;;;;;;5071514;28;20070;-76
2022/06/02 02:36:12;;;;;;;18.90;15.02;;;9.60;99.90;;;;;;5071070;28;20029;-77
2022/06/02 02:39:12;;;;;;;21.88;15.65;;;9.60;99.90;;;;;;5072114;28;20024;-76
2022/06/02 02:42:14;;;;;;;20.07;15.67;;;9.50;99.90;;;;;;5070300;28;20071;-76
2022/06/02 02:44:58;;;;;;;23.02;15.60;;;9.50;99.90;;;;;;5061986;28;20397;-76
2022/06/02 02:47:44;;;;;;;19.23;15.30;;;9.60;99.90;;;;;;5070755;28;20135;-76
2022/06/02 02:50:35;;;;;;;21.63;16.10;;;9.60;99.90;;;;;;5070432;28;20059;-77
2022/06/02 02:53:06;;;;;;;24.48;18.85;;;9.50;99.90;;;;;;5071361;28;20170;-79
2022/06/02 02:55:58;;;;;;;22.52;18.10;;;9.50;99.90;;;;;;5070855;28;20040;-78
2022/06/02 02:58:57;;;;;;;24.33;18.48;;;9.50;99.90;;;;;;5070663;28;20379;-78
2022/06/02 03:01:50;;;;;;;25.58;19.35;;;9.50;99.90;;;;;;5069876;28;20029;-78
2022/06/02 03:04:18;;;;;;;23.95;18.23;;;9.50;99.90;;;;;;5071102;28;20491;-78
2022/06/02 03:06:44;;;;;;;25.60;19.45;;;9.50;99.90;;;;;;5072145;28;20025;-78
2022/06/02 03:09:21;;;;;;;23.83;17.65;;;9.50;99.90;;;;;;5072284;28;20103;-78
2022/06/02 03:11:52;;;;;;;28.45;20.40;;;9.50;99.90;;;;;;5070255;28;20032;-79
2022/06/02 03:14:21;;;;;;;26.30;18.52;;;9.50;99.90;;;;;;5070580;28;20082;-79
2022/06/02 03:16:53;;;;;;;30.13;19.05;;;9.50;99.90;;;;;;5070779;28;20025;-78
2022/06/02 03:19:29;;;;;;;26.85;19.15;;;9.50;99.90;;;;;;5071874;28;20028;-79
2022/06/02 03:22:02;;;;;;;25.67;18.77;;;9.60;99.90;;;;;;5075586;28;20066;-79
2022/06/02 03:24:43;;;;;;;23.80;18.10;;;9.50;99.90;;;;;;5073862;28;20023;-79
2022/06/02 03:27:22;;;;;;;25.60;19.38;;;9.60;99.90;;;;;;5074895;28;20025;-77
2022/06/02 03:30:15;;;;;;;28.02;20.92;;;9.60;99.90;;;;;;5074396;28;20536;-78
2022/06/02 03:32:59;;;;;;;24.48;19.13;;;9.60;99.90;;;;;;5073766;28;20056;-78
2022/06/02 03:35:27;;;;;;;29.95;19.75;;;9.60;99.90;;;;;;5075555;28;20094;-77
2022/06/02 03:37:59;;;;;;;32.22;21.45;;;9.60;99.90;;;;;;5073740;28;20021;-78
2022/06/02 03:40:30;;;;;;;34.63;23.08;;;9.60;99.90;;;;;;5073035;28;20032;-76
2022/06/02 03:43:23;;;;;;;28.15;20.98;;;9.50;99.90;;;;;;5074635;28;20020;-77
2022/06/02 03:46:15;;;;;;;26.45;20.05;;;9.60;99.90;;;;;;5071845;28;20070;-78
2022/06/02 03:49:18;;;;;;;33.58;22.00;;;9.60;99.90;;;;;;5063509;28;20024;-78
2022/06/02 03:52:10;;;;;;;28.95;21.88;;;9.60;99.90;;;;;;5056045;28;20024;-78
2022/06/02 03:55:05;;;;;;;32.80;22.63;;;9.60;99.90;;;;;;5065009;28;20044;-78
2022/06/02 03:57:54;;;;;;;28.38;21.15;;;9.60;99.90;;;;;;5054312;28;20025;-79
2022/06/02 04:00:46;;;;;;;31.20;22.15;;;9.70;99.90;;;;;;5055182;28;20033;-77
2022/06/02 04:03:27;;;;;;;28.90;21.05;;;9.70;99.90;;;;;;5075396;28;20016;-78
2022/06/02 04:06:28;;;;;;;29.42;22.02;;;9.80;99.90;;;;;;5073950;28;20358;-77
2022/06/02 04:09:08;;;;;;;30.45;20.73;;;9.80;99.90;;;;;;5075195;28;20020;-78
2022/06/02 04:15:54;;;;;;;25.80;19.17;;;9.80;99.90;;;;;;5074916;28;20117;-78
2022/06/02 04:18:45;;;;;;;29.08;20.15;;;9.90;99.90;;;;;;5037595;28;20037;-77
2022/06/02 04:21:48;;;;;;;26.08;19.67;;;9.90;99.90;;;;;;5072543;28;20120;-78
2022/06/02 04:24:41;;;;;;;25.08;19.30;;;9.90;99.90;;;;;;5075169;28;20210;-77
2022/06/02 04:27:26;;;;;;;28.17;18.73;;;9.90;99.90;;;;;;5074420;28;20028;-77
2022/06/02 04:30:20;;;;;;;25.65;19.50;;;9.90;99.90;;;;;;5072688;28;20480;-78
2022/06/02 04:33:08;;;;;;;24.60;18.55;;;10.00;99.90;;;;;;5073134;28;20397;-79
2022/06/02 04:36:21;;;;;;;23.50;17.20;;;10.00;99.90;;;;;;5073217;28;20025;-78
2022/06/02 04:39:12;;;;;;;21.75;16.17;;;10.00;99.90;;;;;;5074088;28;20024;-79
2022/06/02 04:42:16;;;;;;;26.90;17.20;;;10.10;99.90;;;;;;5071959;28;20025;-77
2022/06/02 04:44:45;;;;;;;20.55;15.52;;;10.00;99.90;;;;;;5034518;28;20525;-77
2022/06/02 04:47:45;;;;;;;25.73;16.80;;;10.10;99.90;;;;;;5060382;28;20025;-78
2022/06/02 04:50:40;;;;;;;22.80;16.45;;;10.10;99.90;;;;;;5059738;28;20025;-78
2022/06/02 04:53:46;;;;;;;23.63;19.15;;;10.20;99.90;;;;;;5062381;28;20037;-78
2022/06/02 04:56:38;;;;;;;23.92;17.63;;;10.20;99.90;;;;;;5011560;28;20046;-78
2022/06/02 04:59:26;;;;;;;23.70;17.35;;;10.30;99.90;;;;;;5011599;28;20087;-77
2022/06/02 05:02:29;;;;;;;22.92;18.15;;;10.30;99.90;;;;;;5071639;28;20033;-78
2022/06/02 05:05:27;;;;;;;24.23;16.95;;;10.40;99.90;;;;;;5072111;28;20396;-77
2022/06/02 05:08:05;;;;;;;21.15;15.48;;;10.50;99.90;;;;;;5073855;28;20016;-78
2022/06/02 05:11:05;;;;;;;22.42;16.42;;;10.50;99.90;;;;;;5071983;28;20025;-78
2022/06/02 05:13:58;;;;;;;25.23;16.67;;;10.60;99.90;;;;;;5072380;28;20444;-78
2022/06/02 05:17:06;;;;;;;23.05;18.10;;;10.50;99.90;;;;;;5072714;28;20052;-78
2022/06/02 05:19:45;;;;;;;21.88;17.60;;;10.60;99.90;;;;;;5074907;28;20504;-78
2022/06/02 05:22:33;;;;;;;22.77;17.08;;;10.60;99.90;;;;;;5051572;28;20021;-78
2022/06/02 05:25:33;;;;;;;24.63;17.13;;;10.70;99.90;;;;;;5058988;28;20506;-78
2022/06/02 05:28:10;;;;;;;24.70;16.73;;;10.70;99.90;;;;;;5074528;28;20024;-77
2022/06/02 05:30:42;;;;;;;25.17;18.77;;;10.70;99.90;;;;;;5084979;28;20070;-77
2022/06/02 05:33:23;;;;;;;22.80;17.95;;;10.70;99.90;;;;;;5072219;28;20031;-77
2022/06/02 05:35:48;;;;;;;;;;;10.80;99.90;;;;;;5089890;28;20127;-77
2022/06/02 05:38:41;;;;;;;23.13;17.98;;;10.80;99.90;;;;;;5090554;28;19990;-77
2022/06/02 05:41:31;;;;;;;26.30;20.45;;;10.80;99.90;;;;;;5079700;28;20048;-78
2022/06/02 05:44:55;;;;;;;26.20;19.43;;;11.00;99.90;;;;;;5067522;28;20025;-78
2022/06/02 05:47:36;;;;;;;25.50;19.67;;;11.10;99.90;;;;;;5024766;28;20044;-77
2022/06/02 05:50:10;;;;;;;26.75;20.50;;;11.00;99.90;;;;;;5063538;28;20028;-78
2022/06/02 05:52:48;;;;;;;31.15;22.27;;;11.10;99.90;;;;;;5069263;28;20500;-77
2022/06/02 05:55:38;;;;;;;32.00;21.95;;;11.20;99.90;;;;;;5052559;28;20052;-77
2022/06/02 05:58:07;;;;;;;27.17;20.85;;;11.00;99.90;;;;;;5069169;28;20028;-77
2022/06/02 06:00:57;;;;;;;25.75;20.15;;;11.20;99.90;;;;;;5062073;28;20025;-77
2022/06/02 06:03:50;;;;;;;28.23;21.90;;;11.20;99.90;;;;;;5071840;28;20031;-77
2022/06/02 06:06:50;;;;;;;24.02;18.45;;;11.30;99.90;;;;;;5071969;28;20021;-77
2022/06/02 06:09:39;;;;;;;25.30;19.45;;;11.40;99.90;;;;;;5072237;28;20036;-77
2022/06/02 06:12:48;;;;;;;24.73;19.63;;;11.60;99.90;;;;;;5062660;28;20040;-78
2022/06/02 06:15:26;;;;;;;24.35;18.83;;;11.60;99.90;;;;;;5051286;28;20036;-77
2022/06/02 06:18:01;;;;;;;26.27;20.17;;;11.70;99.90;;;;;;5052964;28;20064;-78
2022/06/02 06:21:04;;;;;;;26.35;21.42;;;11.70;99.90;;;;;;5051013;28;20167;-78
2022/06/02 06:24:03;;;;;;;24.85;20.13;;;11.80;99.90;;;;;;5051249;28;20029;-78
2022/06/02 06:26:40;;;;;;;26.58;19.35;;;11.90;99.90;;;;;;5050922;28;20017;-77
2022/06/02 06:29:28;;;;;;;27.27;20.92;;;12.10;99.90;;;;;;5050955;28;20147;-78
2022/06/02 06:32:33;;;;;;;22.58;19.73;;;12.10;99.90;;;;;;5050367;28;20159;-78
2022/06/02 06:35:20;;;;;;;22.05;18.73;;;12.20;99.90;;;;;;5063657;28;20074;-78
2022/06/02 06:38:10;;;;;;;26.20;19.52;;;12.40;99.90;;;;;;5072121;28;20461;-78
2022/06/02 06:40:35;;;;;;;25.00;19.07;;;12.40;99.90;;;;;;5071804;28;20032;-78
2022/06/02 06:43:35;;;;;;;25.42;19.40;;;12.50;99.90;;;;;;5072587;28;20107;-77
2022/06/02 06:46:10;;;;;;;25.45;19.48;;;12.60;99.90;;;;;;5072208;28;20095;-78
2022/06/02 06:48:42;;;;;;;23.77;18.65;;;12.60;99.90;;;;;;5071679;28;20050;-78
2022/06/02 06:51:33;;;;;;;25.77;18.73;;;12.60;99.90;;;;;;5071788;28;20028;-78
2022/06/02 06:54:27;;;;;;;22.98;17.63;;;12.50;99.90;;;;;;5071340;28;20119;-78
2022/06/02 06:57:01;;;;;;;22.25;17.77;;;12.60;99.90;;;;;;5074602;28;20032;-78
2022/06/02 06:59:53;;;;;;;23.17;19.52;;;12.80;99.90;;;;;;5073988;28;20024;-78
2022/06/02 07:02:43;;;;;;;20.10;16.92;;;12.90;99.90;;;;;;5075497;28;20027;-78
2022/06/02 07:05:35;;;;;;;19.70;16.92;;;13.00;99.90;;;;;;5074194;28;20020;-85
2022/06/02 07:08:12;;;;;;;20.88;15.45;;;13.20;99.90;;;;;;5075874;28;20042;-85
2022/06/02 07:10:55;;;;;;;17.05;15.25;;;13.10;99.90;;;;;;5075269;28;20052;-84
2022/06/02 07:13:30;;;;;;;18.65;15.60;;;13.20;99.90;;;;;;5074140;28;20450;-84
2022/06/02 07:16:30;;;;;;;16.88;14.88;;;13.40;99.90;;;;;;5074204;28;20485;-85
2022/06/02 07:19:02;;;;;;;14.55;13.00;;;13.60;99.90;;;;;;5075406;28;20162;-85
2022/06/02 07:21:38;;;;;;;16.58;13.32;;;13.60;99.90;;;;;;5073680;28;20119;-86
2022/06/02 07:24:11;;;;;;;16.98;11.55;;;13.50;99.90;;;;;;5075343;28;20024;-85
2022/06/02 07:27:00;;;;;;;14.52;12.88;;;13.60;99.90;;;;;;5074946;28;20024;-86
2022/06/02 07:29:51;;;;;;;11.45;10.20;;;13.70;99.90;;;;;;5075005;28;20017;-85
2022/06/02 07:32:55;;;;;;;12.20;10.93;;;13.90;99.90;;;;;;5074105;28;20020;-86
2022/06/02 07:35:49;;;;;;;15.20;10.38;;;14.20;99.90;;;;;;5075586;28;20318;-86
2022/06/02 07:38:33;;;;;;;13.13;9.88;;;14.40;99.90;;;;;;5074019;28;20115;-86
2022/06/02 07:41:21;;;;;;;12.32;11.02;;;14.70;99.90;;;;;;5074518;28;20504;-85
2022/06/02 07:44:27;;;;;;;11.85;10.18;;;14.70;99.90;;;;;;5073971;28;20025;-86
2022/06/02 07:47:29;;;;;;;11.23;8.05;;;14.80;99.90;;;;;;5074133;28;20021;-85
2022/06/02 07:50:17;;;;;;;12.05;7.63;;;15.00;99.90;;;;;;5075121;28;20087;-85
2022/06/02 07:52:51;;;;;;;7.85;5.55;;;15.20;99.90;;;;;;5073535;28;20025;-86
2022/06/02 07:55:45;;;;;;;9.02;6.85;;;15.40;99.90;;;;;;5073961;28;20044;-85
2022/06/02 07:58:31;;;;;;;9.38;6.63;;;15.40;99.90;;;;;;5075126;28;20016;-86
2022/06/02 08:01:16;;;;;;;8.77;6.75;;;15.20;99.90;;;;;;5085828;28;20058;-86
2022/06/02 08:04:12;;;;;;;9.13;6.20;;;15.30;99.90;;;;;;5085209;28;20032;-85
2022/06/02 08:06:51;;;;;;;10.05;5.70;;;15.60;99.90;;;;;;5085128;28;20016;-85
2022/06/02 08:10:03;;;;;;;8.02;5.53;;;15.80;99.90;;;;;;5085635;28;20017;-86
2022/06/02 08:12:56;;;;;;;5.70;4.53;;;16.50;99.90;;;;;;5081950;28;20037;-85
2022/06/02 08:15:46;;;;;;;4.50;3.22;;;17.60;99.70;;;;;;5085887;28;20623;-84
2022/06/02 08:18:39;;;;;;;4.75;3.42;;;18.50;98.60;;;;;;5085475;28;20113;-84
2022/06/02 08:21:29;;;;;;;6.35;3.22;;;19.80;96.60;;;;;;5085303;28;20037;-84
2022/06/02 08:24:14;;;;;;;6.43;3.85;;;19.20;94.60;;;;;;5083916;28;20054;-84
2022/06/02 08:27:16;;;;;;;7.38;4.15;;;20.00;93.90;;;;;;5085788;28;20025;-85
2022/06/02 08:30:03;;;;;;;7.75;3.72;;;20.60;90.50;;;;;;5084442;28;20025;-84
2022/06/02 08:32:53;;;;;;;4.38;3.45;;;20.40;86.80;;;;;;5084129;28;20088;-84
2022/06/02 08:35:28;;;;;;;3.90;2.47;;;20.70;85.20;;;;;;5084910;28;20021;-85
2022/06/02 08:38:02;;;;;;;5.45;3.83;;;20.20;84.50;;;;;;5083890;28;20116;-83
2022/06/02 08:40:32;;;;;;;4.72;3.33;;;19.50;86.30;;;;;;5084339;28;20016;-87
2022/06/02 08:43:12;;;;;;;5.38;3.33;;;19.00;89.50;;;;;;5082442;28;20481;-85
2022/06/02 08:46:15;;;;;;;4.05;2.72;;;19.10;89.70;;;;;;5083508;28;20021;-85
2022/06/02 08:49:20;;;;;;;4.82;2.65;;;19.90;89.10;;;;;;5084051;28;20070;-85
2022/06/02 08:52:31;;;;;;;3.88;2.53;;;20.50;83.80;;;;;;5083123;28;20032;-84
2022/06/02 08:55:03;;;;;;;3.47;2.35;;;20.40;83.00;;;;;;5083387;28;20009;-85
2022/06/02 08:57:35;;;;;;;3.70;1.95;;;20.60;79.60;;;;;;5076434;28;20024;-85
2022/06/02 09:00:22;;;;;;;3.40;2.13;;;21.40;81.10;;;;;;5072578;28;20085;-85
2022/06/02 09:03:25;;;;;;;4.50;3.80;;;21.60;78.70;;;;;;5072429;28;20111;-85
2022/06/02 09:06:14;;;;;;;4.00;3.00;;;21.40;77.90;;;;;;5072486;28;20020;-87
2022/06/02 09:09:07;;;;;;;4.07;2.80;;;20.80;79.40;;;;;;5072835;28;20025;-86
2022/06/02 09:11:52;;;;;;;7.05;2.47;;;20.60;79.20;;;;;;5078261;28;20068;-86
2022/06/02 09:14:55;;;;;;;3.55;1.60;;;21.00;77.90;;;;;;5068871;22;20040;-46
2022/06/02 09:17:48;;;;;;;2.65;1.73;;;22.40;74.70;;;;;;5047575;28;20409;-44
2022/06/02 09:20:25;;;;;;;3.17;2.17;;;22.90;73.50;;;;;;5047656;28;20028;-45
2022/06/02 09:23:13;;;;;;;5.85;2.40;;;22.50;72.30;;;;;;5049285;28;20032;-45
2022/06/02 09:26:12;;;;;;;6.60;3.28;;;22.30;73.30;;;;;;5049194;28;20393;-45
2022/06/02 09:28:55;;;;;;;3.65;2.25;;;22.90;69.50;;;;;;5047392;28;20025;-47
2022/06/02 09:31:57;;;;;;;2.92;2.63;;;23.60;67.10;;;;;;5046880;28;20130;-47
2022/06/02 09:34:44;;;;;;;2.10;1.50;;;25.10;61.90;;;;;;5047992;28;20035;-48
2022/06/02 09:37:31;;;;;;;2.80;1.98;;;26.00;62.10;;;;;;5047674;28;20625;-46
2022/06/02 09:40:14;;;;;;;3.45;2.30;;;24.70;62.50;;;;;;5045163;28;20029;-47
2022/06/02 09:43:02;;;;;;;6.10;3.58;;;23.40;64.00;;;;;;5046482;28;20025;-46
2022/06/02 09:45:54;;;;;;;4.03;3.33;;;23.70;64.90;;;;;;5048491;28;20040;-46
2022/06/02 09:48:55;;;;;;;4.30;2.72;;;25.30;62.40;;;;;;5048982;28;20025;-47
2022/06/02 09:51:26;;;;;;;2.55;2.10;;;26.20;58.50;;;;;;5032097;28;20029;-46
2022/06/02 09:54:22;;;;;;;3.00;2.20;;;26.90;59.80;;;;;;5047400;28;20536;-46
2022/06/02 10:00:29;;;;;;;2.63;2.00;;;26.30;53.40;;;;;;5048204;28;20059;-45
2022/06/02 10:03:17;;;;;;;6.28;2.53;;;26.40;55.30;;;;;;5048593;28;20036;-46
2022/06/02 10:05:50;;;;;;;3.33;1.63;;;26.40;52.30;;;;;;5048558;28;20497;-46
2022/06/02 10:08:49;;;;;;;4.38;1.80;;;27.20;50.70;;;;;;5047119;28;20494;-47
2022/06/02 10:11:38;;;;;;;3.17;1.75;;;26.60;51.90;;;;;;5030847;28;20498;-47
2022/06/02 10:14:23;;;;;;;2.33;1.48;;;26.70;54.60;;;;;;5048453;28;20037;-45
2022/06/02 10:17:21;;;;;;;4.50;2.50;;;26.70;55.70;;;;;;5048457;28;20401;-46
2022/06/02 10:20:11;;;;;;;4.25;2.05;;;26.80;52.00;;;;;;5046415;28;20181;-47
2022/06/02 10:22:59;;;;;;;2.03;1.83;;;26.60;51.70;;;;;;5048703;28;20024;-46
2022/06/02 10:25:49;;;;;;;4.18;2.03;;;27.50;52.70;;;;;;5048550;28;20017;-47
2022/06/02 10:28:54;;;;;;;2.50;1.50;;;27.30;50.10;;;;;;5048311;28;20124;-47
2022/06/02 10:31:25;;;;;;;1.70;1.60;;;27.90;50.40;;;;;;5050360;28;20021;-46
2022/06/02 10:34:19;;;;;;;4.70;1.88;;;26.60;50.20;;;;;;5052382;28;20481;-46
2022/06/02 10:37:22;;;;;;;3.15;1.88;;;26.60;52.60;;;;;;5052476;28;20025;-48
2022/06/02 10:40:13;;;;;;;1.92;1.55;;;27.40;51.60;;;;;;5051691;28;20567;-46
2022/06/02 10:43:02;;;;;;;1.63;1.20;;;27.90;50.50;;;;;;5052487;28;20021;-46
2022/06/02 10:46:08;;;;;;;5.47;2.35;;;27.00;52.20;;;;;;5052377;28;20025;-46
2022/06/02 10:49:02;;;;;;;3.20;1.95;;;26.60;50.30;;;;;;5052555;28;20025;-46
2022/06/02 10:51:54;;;;;;;3.03;1.85;;;27.10;51.70;;;;;;5051613;28;20100;-46
2022/06/02 10:55:03;;;;;;;3.83;1.65;;;27.40;50.80;;;;;;5052124;28;20033;-46
2022/06/02 10:58:06;;;;;;;3.70;1.80;;;27.40;49.20;;;;;;5052099;28;20112;-47
2022/06/02 11:00:49;;;;;;;5.38;1.67;;;28.20;48.70;;;;;;5051272;28;20029;-47
2022/06/02 11:03:41;;;;;;;2.53;1.75;;;27.80;48.60;;;;;;5052165;28;20428;-46
2022/06/02 11:06:21;;;;;;;3.65;1.83;;;28.00;50.80;;;;;;5052066;28;20017;-46
2022/06/02 11:08:52;;;;;;;1.63;1.50;;;28.00;49.40;;;;;;5052337;28;20028;-47
2022/06/02 11:11:52;;;;;;;2.78;1.60;;;28.40;48.30;;;;;;5051438;28;20389;-47
2022/06/02 11:14:51;;;;;;;3.53;1.70;;;27.40;49.20;;;;;;5050640;28;20037;-47
2022/06/02 11:17:22;;;;;;;2.80;1.52;;;26.30;49.80;;;;;;5051948;28;20044;-46
2022/06/02 11:20:34;;;;;;;1.83;1.25;;;25.90;51.70;;;;;;5051286;28;20468;-48
2022/06/02 11:23:45;;;;;;;1.45;1.25;;;25.20;53.00;;;;;;5052044;28;20021;-48
2022/06/02 11:26:38;;;;;;;3.78;1.98;;;26.20;49.00;;;;;;5051740;28;20051;-46
2022/06/02 11:29:32;;;;;;;3.20;1.60;;;23.80;53.20;;;;;;5051413;28;20051;-46
2022/06/02 11:32:10;;;;;;;1.52;1.05;;;23.70;55.60;;;;;;5051403;28;20428;-46
2022/06/02 11:35:11;;;;;;;4.45;1.17;;;23.60;57.00;;;;;;5051384;28;20051;-46
2022/06/02 11:38:01;;;;;;;2.00;1.35;;;23.40;54.80;;;;;;5050037;28;20061;-49
2022/06/02 11:41:03;;;;;;;1.70;1.15;;;22.90;58.30;;;;;;5049707;28;20521;-45
2022/06/02 11:43:50;;;;;;;1.98;1.25;;;22.30;59.60;;;;;;5047442;28;20025;-46
2022/06/02 11:46:33;;;;;;;4.50;1.13;;;22.30;62.00;;;;;;5049771;28;20017;-46
2022/06/02 11:49:22;;;;;;;3.15;1.30;;;22.90;60.60;;;;;;5048945;28;20493;-47
2022/06/02 11:52:25;;;;;;;2.72;1.40;;;22.70;57.70;;;;;;5049782;28;20104;-47
2022/06/02 11:55:16;;;;;;;3.75;1.38;;;22.30;61.10;;;;;;5050256;28;20040;-48
2022/06/02 11:58:08;;;;;;;1.58;1.10;;;22.10;59.40;;;;;;5050399;28;20021;-47
2022/06/02 12:00:58;;;;;;;2.25;1.42;;;21.80;59.60;;;;;;5049517;28;20481;-46
2022/06/02 12:03:40;;;;;;;1.92;1.50;;;22.00;60.90;;;;;;5050054;28;20078;-45
2022/06/02 12:06:31;;;;;;;2.67;1.55;;;21.60;61.40;;;;;;5048849;28;20393;-46
2022/06/02 12:09:15;;;;;;;;;;;21.40;63.70;;;;;;5050628;28;20012;-46
2022/06/02 12:12:29;;;;;;;2.00;1.10;;;21.40;62.60;;;;;;5048021;28;20349;-47
2022/06/02 12:15:19;;;;;;;2.53;1.40;;;21.60;64.00;;;;;;5046480;28;20528;-46
2022/06/02 12:18:15;;;;;;;1.10;1.00;;;21.40;61.10;;;;;;5049049;28;20025;-45
2022/06/02 12:20:54;;;;;;;1.90;1.05;;;21.30;63.90;;;;;;5048043;28;20040;-46
2022/06/02 12:23:41;;;;;;;7.47;1.50;;;21.20;64.90;;;;;;5048179;28;20041;-45
2022/06/02 12:26:35;;;;;;;2.58;1.52;;;21.00;62.00;;;;;;5049512;28;20460;-49
2022/06/02 12:29:24;;;;;;;1.15;1.05;;;20.80;62.20;;;;;;5050017;28;20028;-46
2022/06/02 12:32:14;;;;;;;1.13;1.02;;;21.00;64.20;;;;;;5049513;28;20033;-45
2022/06/02 12:35:05;;;;;;;2.13;1.20;;;21.80;63.80;;;;;;5049538;28;20025;-47
2022/06/02 12:37:50;;;;;;;2.30;1.25;;;22.40;62.00;;;;;;5048998;28;20094;-47
2022/06/02 12:40:42;;;;;;;2.97;1.27;;;22.20;60.80;;;;;;5047981;28;20032;-46
2022/06/02 12:43:25;;;;;;;1.00;1.00;;;21.90;60.50;;;;;;5049386;28;20353;-46
2022/06/02 12:46:09;;;;;;;1.92;1.60;;;21.70;61.40;;;;;;5048436;28;20021;-47
2022/06/02 12:49:22;;;;;;;2.20;1.60;;;21.50;61.90;;;;;;5049476;28;20393;-46
2022/06/02 12:52:11;;;;;;;1.70;1.30;;;21.30;62.10;;;;;;5048715;28;20025;-48
2022/06/02 12:54:56;;;;;;;2.20;1.30;;;21.80;65.90;;;;;;5042852;28;20080;-50
2022/06/02 12:58:06;;;;;;;2.40;1.38;;;22.50;64.90;;;;;;5049218;28;20075;-47
2022/06/02 13:00:48;;;;;;;2.35;1.35;;;22.40;61.80;;;;;;5025557;28;20037;-47
2022/06/02 13:03:42;;;;;;;2.90;1.20;;;22.10;62.80;;;;;;5047613;28;20032;-50
2022/06/02 13:06:33;;;;;;;2.58;1.00;;;21.90;61.60;;;;;;5049363;28;20024;-48
2022/06/02 13:09:36;;;;;;;2.17;1.10;;;22.00;62.60;;;;;;5049394;28;20021;-46
2022/06/02 13:12:04;;;;;;;2.17;1.20;;;22.00;63.10;;;;;;5048876;28;20485;-48
2022/06/02 13:14:46;;;;;;;1.60;1.00;;;22.00;65.30;;;;;;5048615;28;21084;-47
2022/06/02 13:17:32;;;;;;;1.88;1.10;;;22.40;67.00;;;;;;5037773;28;20421;-47
2022/06/02 13:20:28;;;;;;;3.00;1.20;;;22.90;65.40;;;;;;5047421;28;20393;-47
2022/06/02 13:23:12;;;;;;;1.35;1.05;;;23.30;56.40;;;;;;5046461;28;20025;-46
2022/06/02 13:25:50;;;;;;;1.67;0.82;;;22.60;56.90;;;;;;5047526;28;20362;-50
2022/06/02 13:28:43;;;;;;;4.03;1.00;;;22.30;60.20;;;;;;5048890;28;20017;-47
2022/06/02 13:31:18;;;;;;;0.98;0.93;;;22.70;61.00;;;;;;5048458;28;20074;-45
2022/06/02 13:34:26;;;;;;;2.78;1.60;;;22.20;59.70;;;;;;5048646;28;20037;-46
2022/06/02 13:37:25;;;;;;;1.65;1.48;;;22.00;58.90;;;;;;5049029;28;20029;-46
2022/06/02 13:40:08;;;;;;;2.08;1.00;;;21.70;62.00;;;;;;5047409;28;20258;-46
2022/06/02 13:43:22;;;;;;;2.22;1.40;;;21.70;65.00;;;;;;5046104;28;20021;-47
2022/06/02 13:46:01;;;;;;;1.95;1.25;;;22.50;62.10;;;;;;5046910;28;20028;-46
2022/06/02 13:49:08;;;;;;;1.93;1.20;;;22.80;59.40;;;;;;5046065;28;20032;-46
2022/06/02 13:51:58;;;;;;;2.22;1.05;;;21.90;57.00;;;;;;5046888;28;20036;-46
2022/06/02 13:58:05;;;;;;;1.52;1.10;;;20.90;61.60;;;;;;5047289;28;20720;-47
2022/06/02 14:01:08;;;;;;;2.28;1.30;;;20.60;62.20;;;;;;5044130;28;20040;-45
2022/06/02 14:03:54;;;;;;;1.42;1.08;;;20.70;65.50;;;;;;5047161;28;20359;-49
2022/06/02 14:06:24;;;;;;;2.25;1.30;;;21.00;66.20;;;;;;5047993;28;20024;-47
2022/06/02 14:09:14;;;;;;;1.17;0.90;;;20.90;61.30;;;;;;5049465;28;20452;-46
2022/06/02 14:11:59;;;;;;;1.55;1.17;;;21.00;63.10;;;;;;5035897;28;20029;-47
2022/06/02 14:14:34;;;;;;;1.45;1.05;;;20.90;62.10;;;;;;5067182;28;20489;-47
2022/06/02 14:17:19;;;;;;;1.17;1.02;;;20.80;62.80;;;;;;5067118;28;20040;-48
2022/06/02 14:20:19;;;;;;;1.45;0.88;;;20.70;61.70;;;;;;5066190;28;20142;-47
2022/06/02 14:23:04;;;;;;;4.03;1.55;;;20.70;63.60;;;;;;5066513;28;20086;-46
2022/06/02 14:25:57;;;;;;;2.65;1.20;;;20.80;61.80;;;;;;5067472;28;20102;-45
2022/06/02 14:28:25;;;;;;;1.05;0.95;;;20.70;64.00;;;;;;5051845;28;20458;-45
2022/06/02 14:31:07;;;;;;;1.42;1.20;;;20.60;63.70;;;;;;5047152;28;20039;-45
2022/06/02 14:33:39;;;;;;;8.23;1.20;;;20.60;65.20;;;;;;5047249;28;20090;-45
2022/06/02 14:36:31;;;;;;;1.70;1.23;;;20.70;63.70;;;;;;5047814;28;20021;-47
2022/06/02 14:39:28;;;;;;;2.22;1.33;;;20.40;65.80;;;;;;5046620;28;20052;-47
2022/06/02 14:45:32;;;;;;;4.15;1.20;;;20.90;64.30;;;;;;5047665;28;20078;-46
2022/06/02 14:48:05;;;;;;;1.92;1.20;;;21.40;65.60;;;;;;5047602;28;20501;-47